sensor_id;sensor_type;location;lat;lon;timestamp;temperature;humidity
2867;DHT22;1441;48.886;8.728;2022-12-08T00:01:46;1.50;99.90
2867;DHT22;1441;48.886;8.728;2022-12-08T00:04:12;1.40;99.90
2867;DHT22;1441;48.886;8.728;2022-12-08T00:06:42;1.30;99.90
2867;DHT22;1441;48.886;8.728;2022-12-08T00:09:34;1.20;99.90
2867;DHT22;1441;48.886;8.728;2022-12-08T00:12:01;1.20;99.90
2867;DHT22;1441;48.886;8.728;2022-12-08T00:14:38;1.20;99.90
2867;DHT22;1441;48.886;8.728;2022-12-08T00:17:06;1.10;99.90
2867;DHT22;1441;48.886;8.728;2022-12-08T00:19:32;1.10;99.90
2867;DHT22;1441;48.886;8.728;2022-12-08T00:21:58;1.20;99.90
2867;DHT22;1441;48.886;8.728;2022-12-08T00:24:29;1.20;99.90
2867;DHT22;1441;48.886;8.728;2022-12-08T00:26:54;1.20;99.90
2867;DHT22;1441;48.886;8.728;2022-12-08T00:29:20;1.10;99.90
2867;DHT22;1441;48.886;8.728;2022-12-08T00:31:46;1.10;99.90
2867;DHT22;1441;48.886;8.728;2022-12-08T00:34:12;1.00;99.90
2867;DHT22;1441;48.886;8.728;2022-12-08T00:36:38;0.80;99.90
2867;DHT22;1441;48.886;8.728;2022-12-08T00:39:04;0.80;99.90
2867;DHT22;1441;48.886;8.728;2022-12-08T00:41:29;0.90;99.90
2867;DHT22;1441;48.886;8.728;2022-12-08T00:44:15;0.70;99.90
2867;DHT22;1441;48.886;8.728;2022-12-08T00:46:43;0.60;99.90
2867;DHT22;1441;48.886;8.728;2022-12-08T00:49:09;0.60;99.90
2867;DHT22;1441;48.886;8.728;2022-12-08T00:51:34;0.50;99.90
2867;DHT22;1441;48.886;8.728;2022-12-08T00:54:00;0.50;99.90
2867;DHT22;1441;48.886;8.728;2022-12-08T00:56:26;0.60;99.90
2867;DHT22;1441;48.886;8.728;2022-12-08T00:58:52;0.60;99.90
2867;DHT22;1441;48.886;8.728;2022-12-08T01:01:17;0.60;99.90
2867;DHT22;1441;48.886;8.728;2022-12-08T01:03:43;0.50;99.90
2867;DHT22;1441;48.886;8.728;2022-12-08T01:06:09;0.60;99.90
2867;DHT22;1441;48.886;8.728;2022-12-08T01:08:36;0.60;99.90
2867;DHT22;1441;48.886;8.728;2022-12-08T01:11:03;0.60;99.90
2867;DHT22;1441;48.886;8.728;2022-12-08T01:13:29;0.60;99.90
2867;DHT22;1441;48.886;8.728;2022-12-08T01:15:54;0.60;99.90
2867;DHT22;1441;48.886;8.728;2022-12-08T01:18:20;0.70;99.90
2867;DHT22;1441;48.886;8.728;2022-12-08T01:20:45;0.70;99.90
2867;DHT22;1441;48.886;8.728;2022-12-08T01:23:11;0.70;99.90
2867;DHT22;1441;48.886;8.728;2022-12-08T01:25:36;0.80;99.90
2867;DHT22;1441;48.886;8.728;2022-12-08T01:28:02;0.80;99.90
2867;DHT22;1441;48.886;8.728;2022-12-08T01:30:28;0.80;99.90
2867;DHT22;1441;48.886;8.728;2022-12-08T01:32:53;0.80;99.90
2867;DHT22;1441;48.886;8.728;2022-12-08T01:35:19;0.80;99.90
2867;DHT22;1441;48.886;8.728;2022-12-08T01:37:45;0.90;99.90
2867;DHT22;1441;48.886;8.728;2022-12-08T01:40:10;0.90;99.90
2867;DHT22;1441;48.886;8.728;2022-12-08T01:42:36;0.90;99.90
2867;DHT22;1441;48.886;8.728;2022-12-08T01:45:05;0.90;99.90
2867;DHT22;1441;48.886;8.728;2022-12-08T01:47:36;0.90;99.90
2867;DHT22;1441;48.886;8.728;2022-12-08T01:50:03;0.90;99.90
2867;DHT22;1441;48.886;8.728;2022-12-08T01:52:44;1.00;99.90
2867;DHT22;1441;48.886;8.728;2022-12-08T01:55:57;0.90;99.90
2867;DHT22;1441;48.886;8.728;2022-12-08T01:58:21;0.90;99.90
2867;DHT22;1441;48.886;8.728;2022-12-08T02:00:48;1.00;99.90
2867;DHT22;1441;48.886;8.728;2022-12-08T02:05:56;1.10;99.90
2867;DHT22;1441;48.886;8.728;2022-12-08T02:08:22;1.20;99.90
2867;DHT22;1441;48.886;8.728;2022-12-08T02:10:50;1.00;99.90
2867;DHT22;1441;48.886;8.728;2022-12-08T02:13:18;1.00;99.90
2867;DHT22;1441;48.886;8.728;2022-12-08T02:21:05;1.00;99.90
2867;DHT22;1441;48.886;8.728;2022-12-08T02:29:37;0.80;99.90
2867;DHT22;1441;48.886;8.728;2022-12-08T02:35:35;0.70;99.90
2867;DHT22;1441;48.886;8.728;2022-12-08T02:40:49;0.60;99.90
2867;DHT22;1441;48.886;8.728;2022-12-08T02:43:28;0.60;99.90
2867;DHT22;1441;48.886;8.728;2022-12-08T02:46:00;0.60;99.90
2867;DHT22;1441;48.886;8.728;2022-12-08T02:48:28;0.60;99.90
2867;DHT22;1441;48.886;8.728;2022-12-08T02:50:54;0.60;99.90
2867;DHT22;1441;48.886;8.728;2022-12-08T02:53:20;0.60;99.90
2867;DHT22;1441;48.886;8.728;2022-12-08T02:56:09;0.60;99.90
2867;DHT22;1441;48.886;8.728;2022-12-08T03:01:35;0.60;99.90
2867;DHT22;1441;48.886;8.728;2022-12-08T03:04:23;0.60;99.90
2867;DHT22;1441;48.886;8.728;2022-12-08T03:07:05;0.50;99.90
2867;DHT22;1441;48.886;8.728;2022-12-08T03:09:40;0.60;99.90
2867;DHT22;1441;48.886;8.728;2022-12-08T03:12:37;0.60;99.90
2867;DHT22;1441;48.886;8.728;2022-12-08T03:15:07;0.70;99.90
2867;DHT22;1441;48.886;8.728;2022-12-08T03:17:35;0.70;99.90
2867;DHT22;1441;48.886;8.728;2022-12-08T03:20:08;0.70;99.90
2867;DHT22;1441;48.886;8.728;2022-12-08T03:22:35;0.70;99.90
2867;DHT22;1441;48.886;8.728;2022-12-08T03:25:01;0.70;99.90
2867;DHT22;1441;48.886;8.728;2022-12-08T03:27:28;0.80;99.90
2867;DHT22;1441;48.886;8.728;2022-12-08T03:29:57;0.80;99.90
2867;DHT22;1441;48.886;8.728;2022-12-08T03:32:55;0.80;99.90
2867;DHT22;1441;48.886;8.728;2022-12-08T03:35:25;0.90;99.90
2867;DHT22;1441;48.886;8.728;2022-12-08T03:38:02;0.90;99.90
2867;DHT22;1441;48.886;8.728;2022-12-08T03:40:27;0.90;99.90
2867;DHT22;1441;48.886;8.728;2022-12-08T03:42:53;0.90;99.90
2867;DHT22;1441;48.886;8.728;2022-12-08T03:45:19;0.90;99.90
2867;DHT22;1441;48.886;8.728;2022-12-08T03:47:44;1.00;99.90
2867;DHT22;1441;48.886;8.728;2022-12-08T03:50:10;1.00;99.90
2867;DHT22;1441;48.886;8.728;2022-12-08T03:52:36;0.90;99.90
2867;DHT22;1441;48.886;8.728;2022-12-08T03:55:02;0.90;99.90
2867;DHT22;1441;48.886;8.728;2022-12-08T03:57:28;0.90;99.90
2867;DHT22;1441;48.886;8.728;2022-12-08T03:59:53;0.90;99.90
2867;DHT22;1441;48.886;8.728;2022-12-08T04:02:19;1.00;99.90
2867;DHT22;1441;48.886;8.728;2022-12-08T04:04:44;1.00;99.90
2867;DHT22;1441;48.886;8.728;2022-12-08T04:07:10;1.00;99.90
2867;DHT22;1441;48.886;8.728;2022-12-08T04:09:35;1.10;99.90
2867;DHT22;1441;48.886;8.728;2022-12-08T04:12:01;1.10;99.90
2867;DHT22;1441;48.886;8.728;2022-12-08T04:14:27;1.10;99.90
2867;DHT22;1441;48.886;8.728;2022-12-08T04:16:52;1.10;99.90
2867;DHT22;1441;48.886;8.728;2022-12-08T04:19:18;1.20;99.90
2867;DHT22;1441;48.886;8.728;2022-12-08T04:21:44;1.20;99.90
2867;DHT22;1441;48.886;8.728;2022-12-08T04:24:09;1.20;99.90
2867;DHT22;1441;48.886;8.728;2022-12-08T04:26:35;1.20;99.90
2867;DHT22;1441;48.886;8.728;2022-12-08T04:29:00;1.20;99.90
2867;DHT22;1441;48.886;8.728;2022-12-08T04:31:26;1.30;99.90
2867;DHT22;1441;48.886;8.728;2022-12-08T04:33:51;1.30;99.90
2867;DHT22;1441;48.886;8.728;2022-12-08T04:36:17;1.30;99.90
2867;DHT22;1441;48.886;8.728;2022-12-08T04:38:43;1.30;99.90
2867;DHT22;1441;48.886;8.728;2022-12-08T04:41:08;1.30;99.90
2867;DHT22;1441;48.886;8.728;2022-12-08T04:43:34;1.30;99.90
2867;DHT22;1441;48.886;8.728;2022-12-08T04:46:00;1.30;99.90
2867;DHT22;1441;48.886;8.728;2022-12-08T04:48:26;1.30;99.90
2867;DHT22;1441;48.886;8.728;2022-12-08T04:50:51;1.20;99.90
2867;DHT22;1441;48.886;8.728;2022-12-08T04:53:17;1.10;99.90
2867;DHT22;1441;48.886;8.728;2022-12-08T04:55:44;1.00;99.90
2867;DHT22;1441;48.886;8.728;2022-12-08T04:58:17;1.00;99.90
2867;DHT22;1441;48.886;8.728;2022-12-08T05:00:46;1.00;99.90
2867;DHT22;1441;48.886;8.728;2022-12-08T05:03:12;1.00;99.90
2867;DHT22;1441;48.886;8.728;2022-12-08T05:05:37;1.00;99.90
2867;DHT22;1441;48.886;8.728;2022-12-08T05:08:04;1.00;99.90
2867;DHT22;1441;48.886;8.728;2022-12-08T05:10:30;1.00;99.90
2867;DHT22;1441;48.886;8.728;2022-12-08T05:12:57;1.00;99.90
2867;DHT22;1441;48.886;8.728;2022-12-08T05:15:23;0.90;99.90
2867;DHT22;1441;48.886;8.728;2022-12-08T05:17:48;0.90;99.90
2867;DHT22;1441;48.886;8.728;2022-12-08T05:20:14;1.00;99.90
2867;DHT22;1441;48.886;8.728;2022-12-08T05:22:39;1.20;99.90
2867;DHT22;1441;48.886;8.728;2022-12-08T05:25:05;1.20;99.90
2867;DHT22;1441;48.886;8.728;2022-12-08T05:27:31;1.10;99.90
2867;DHT22;1441;48.886;8.728;2022-12-08T05:29:56;1.00;99.90
2867;DHT22;1441;48.886;8.728;2022-12-08T05:32:22;1.00;99.90
2867;DHT22;1441;48.886;8.728;2022-12-08T05:34:48;0.80;99.90
2867;DHT22;1441;48.886;8.728;2022-12-08T05:37:14;0.80;99.90
2867;DHT22;1441;48.886;8.728;2022-12-08T05:39:40;0.90;99.90
2867;DHT22;1441;48.886;8.728;2022-12-08T05:42:05;1.10;99.90
2867;DHT22;1441;48.886;8.728;2022-12-08T05:44:31;1.10;99.90
2867;DHT22;1441;48.886;8.728;2022-12-08T05:46:56;1.20;99.90
2867;DHT22;1441;48.886;8.728;2022-12-08T05:49:22;1.10;99.90
2867;DHT22;1441;48.886;8.728;2022-12-08T05:51:47;1.10;99.90
2867;DHT22;1441;48.886;8.728;2022-12-08T05:54:13;0.90;99.90
2867;DHT22;1441;48.886;8.728;2022-12-08T05:56:38;0.80;99.90
2867;DHT22;1441;48.886;8.728;2022-12-08T05:59:06;0.80;99.90
2867;DHT22;1441;48.886;8.728;2022-12-08T06:01:32;0.70;99.90
2867;DHT22;1441;48.886;8.728;2022-12-08T06:03:59;0.70;99.90
2867;DHT22;1441;48.886;8.728;2022-12-08T06:06:26;0.70;99.90
2867;DHT22;1441;48.886;8.728;2022-12-08T06:08:52;0.60;99.90
2867;DHT22;1441;48.886;8.728;2022-12-08T06:11:20;0.60;99.90
2867;DHT22;1441;48.886;8.728;2022-12-08T06:13:46;0.50;99.90
2867;DHT22;1441;48.886;8.728;2022-12-08T06:16:12;0.40;99.90
2867;DHT22;1441;48.886;8.728;2022-12-08T06:18:38;0.60;99.90
2867;DHT22;1441;48.886;8.728;2022-12-08T06:21:04;0.60;99.90
2867;DHT22;1441;48.886;8.728;2022-12-08T06:23:30;0.70;99.90
2867;DHT22;1441;48.886;8.728;2022-12-08T06:26:03;0.60;99.90
2867;DHT22;1441;48.886;8.728;2022-12-08T06:28:29;0.50;99.90
2867;DHT22;1441;48.886;8.728;2022-12-08T06:30:55;0.50;99.90
2867;DHT22;1441;48.886;8.728;2022-12-08T06:33:21;0.50;99.90
2867;DHT22;1441;48.886;8.728;2022-12-08T06:35:46;0.50;99.90
2867;DHT22;1441;48.886;8.728;2022-12-08T06:38:12;0.40;99.90
2867;DHT22;1441;48.886;8.728;2022-12-08T06:40:37;0.50;99.90
2867;DHT22;1441;48.886;8.728;2022-12-08T06:43:03;0.80;99.90
2867;DHT22;1441;48.886;8.728;2022-12-08T06:45:29;0.80;99.90
2867;DHT22;1441;48.886;8.728;2022-12-08T06:47:54;0.80;99.90
2867;DHT22;1441;48.886;8.728;2022-12-08T06:50:20;0.70;99.90
2867;DHT22;1441;48.886;8.728;2022-12-08T06:52:45;0.70;99.90
2867;DHT22;1441;48.886;8.728;2022-12-08T06:55:11;0.60;99.90
2867;DHT22;1441;48.886;8.728;2022-12-08T06:57:36;0.60;99.90
2867;DHT22;1441;48.886;8.728;2022-12-08T07:00:04;0.50;99.90
2867;DHT22;1441;48.886;8.728;2022-12-08T07:02:30;0.50;99.90
2867;DHT22;1441;48.886;8.728;2022-12-08T07:04:55;0.40;99.90
2867;DHT22;1441;48.886;8.728;2022-12-08T07:07:21;0.40;99.90
2867;DHT22;1441;48.886;8.728;2022-12-08T07:09:46;0.50;99.90
2867;DHT22;1441;48.886;8.728;2022-12-08T07:12:12;0.50;99.90
2867;DHT22;1441;48.886;8.728;2022-12-08T07:14:38;0.50;99.90
2867;DHT22;1441;48.886;8.728;2022-12-08T07:17:03;0.50;99.90
2867;DHT22;1441;48.886;8.728;2022-12-08T07:19:29;0.50;99.90
2867;DHT22;1441;48.886;8.728;2022-12-08T07:21:54;0.50;99.90
2867;DHT22;1441;48.886;8.728;2022-12-08T07:24:20;0.60;99.90
2867;DHT22;1441;48.886;8.728;2022-12-08T07:26:46;0.70;99.90
2867;DHT22;1441;48.886;8.728;2022-12-08T07:29:11;1.00;99.90
2867;DHT22;1441;48.886;8.728;2022-12-08T07:31:37;0.90;99.90
2867;DHT22;1441;48.886;8.728;2022-12-08T07:34:03;0.90;99.90
2867;DHT22;1441;48.886;8.728;2022-12-08T07:36:28;0.90;99.90
2867;DHT22;1441;48.886;8.728;2022-12-08T07:38:54;0.90;99.90
2867;DHT22;1441;48.886;8.728;2022-12-08T07:41:22;0.80;99.90
2867;DHT22;1441;48.886;8.728;2022-12-08T07:43:48;0.90;99.90
2867;DHT22;1441;48.886;8.728;2022-12-08T07:46:15;0.80;99.90
2867;DHT22;1441;48.886;8.728;2022-12-08T07:48:42;0.80;99.90
2867;DHT22;1441;48.886;8.728;2022-12-08T07:51:07;0.80;99.90
2867;DHT22;1441;48.886;8.728;2022-12-08T07:53:34;0.80;99.90
2867;DHT22;1441;48.886;8.728;2022-12-08T07:56:00;1.00;99.90
2867;DHT22;1441;48.886;8.728;2022-12-08T07:58:26;1.20;99.90
2867;DHT22;1441;48.886;8.728;2022-12-08T08:00:52;1.20;99.90
2867;DHT22;1441;48.886;8.728;2022-12-08T08:03:17;1.40;99.90
2867;DHT22;1441;48.886;8.728;2022-12-08T08:05:43;1.70;99.90
2867;DHT22;1441;48.886;8.728;2022-12-08T08:08:09;1.80;99.90
2867;DHT22;1441;48.886;8.728;2022-12-08T08:10:35;1.80;99.90
2867;DHT22;1441;48.886;8.728;2022-12-08T08:13:01;1.80;99.90
2867;DHT22;1441;48.886;8.728;2022-12-08T08:15:27;1.90;99.90
2867;DHT22;1441;48.886;8.728;2022-12-08T08:17:53;2.40;99.00
2867;DHT22;1441;48.886;8.728;2022-12-08T08:20:19;2.30;99.30
2867;DHT22;1441;48.886;8.728;2022-12-08T08:22:47;2.30;98.90
2867;DHT22;1441;48.886;8.728;2022-12-08T08:25:13;2.20;99.30
2867;DHT22;1441;48.886;8.728;2022-12-08T08:27:39;2.20;99.70
2867;DHT22;1441;48.886;8.728;2022-12-08T08:30:07;2.30;99.40
2867;DHT22;1441;48.886;8.728;2022-12-08T08:32:33;2.40;99.20
2867;DHT22;1441;48.886;8.728;2022-12-08T08:34:59;2.50;98.30
2867;DHT22;1441;48.886;8.728;2022-12-08T08:37:25;2.50;98.40
2867;DHT22;1441;48.886;8.728;2022-12-08T08:39:51;2.60;98.50
2867;DHT22;1441;48.886;8.728;2022-12-08T08:42:17;2.60;98.80
2867;DHT22;1441;48.886;8.728;2022-12-08T08:44:42;2.60;98.90
2867;DHT22;1441;48.886;8.728;2022-12-08T08:47:08;2.60;99.00
2867;DHT22;1441;48.886;8.728;2022-12-08T08:49:34;2.70;99.20
2867;DHT22;1441;48.886;8.728;2022-12-08T08:51:59;2.70;98.70
2867;DHT22;1441;48.886;8.728;2022-12-08T08:54:27;2.80;98.70
2867;DHT22;1441;48.886;8.728;2022-12-08T08:56:53;2.90;98.60
2867;DHT22;1441;48.886;8.728;2022-12-08T08:59:19;3.00;98.50
2867;DHT22;1441;48.886;8.728;2022-12-08T09:01:44;3.00;98.20
2867;DHT22;1441;48.886;8.728;2022-12-08T09:04:10;3.00;98.40
2867;DHT22;1441;48.886;8.728;2022-12-08T09:06:35;3.00;98.00
2867;DHT22;1441;48.886;8.728;2022-12-08T09:09:01;3.00;98.00
2867;DHT22;1441;48.886;8.728;2022-12-08T09:11:26;3.00;98.00
2867;DHT22;1441;48.886;8.728;2022-12-08T09:13:53;3.00;98.10
2867;DHT22;1441;48.886;8.728;2022-12-08T09:16:19;3.10;97.50
2867;DHT22;1441;48.886;8.728;2022-12-08T09:18:45;3.00;97.80
2867;DHT22;1441;48.886;8.728;2022-12-08T09:21:13;3.10;98.10
2867;DHT22;1441;48.886;8.728;2022-12-08T09:23:41;3.20;97.70
2867;DHT22;1441;48.886;8.728;2022-12-08T09:26:07;3.30;97.60
2867;DHT22;1441;48.886;8.728;2022-12-08T09:28:33;3.30;97.40
2867;DHT22;1441;48.886;8.728;2022-12-08T09:30:59;3.40;96.90
2867;DHT22;1441;48.886;8.728;2022-12-08T09:33:24;3.40;97.10
2867;DHT22;1441;48.886;8.728;2022-12-08T09:35:50;3.60;96.90
2867;DHT22;1441;48.886;8.728;2022-12-08T09:38:16;3.70;95.00
2867;DHT22;1441;48.886;8.728;2022-12-08T09:40:49;3.80;94.70
2867;DHT22;1441;48.886;8.728;2022-12-08T09:45:56;3.80;94.50
2867;DHT22;1441;48.886;8.728;2022-12-08T09:48:28;3.80;94.00
2867;DHT22;1441;48.886;8.728;2022-12-08T09:50:56;3.90;94.70
2867;DHT22;1441;48.886;8.728;2022-12-08T09:53:33;3.80;94.50
2867;DHT22;1441;48.886;8.728;2022-12-08T09:56:27;3.80;95.00
2867;DHT22;1441;48.886;8.728;2022-12-08T09:59:02;3.80;95.20
2867;DHT22;1441;48.886;8.728;2022-12-08T10:01:30;3.70;95.40
2867;DHT22;1441;48.886;8.728;2022-12-08T10:03:56;3.70;95.40
2867;DHT22;1441;48.886;8.728;2022-12-08T10:06:43;3.60;95.20
2867;DHT22;1441;48.886;8.728;2022-12-08T10:09:38;3.60;95.60
2867;DHT22;1441;48.886;8.728;2022-12-08T10:12:21;3.70;95.60
2867;DHT22;1441;48.886;8.728;2022-12-08T10:15:21;3.90;93.90
2867;DHT22;1441;48.886;8.728;2022-12-08T10:17:51;4.10;93.90
2867;DHT22;1441;48.886;8.728;2022-12-08T10:20:18;4.10;93.40
2867;DHT22;1441;48.886;8.728;2022-12-08T10:22:47;4.20;93.20
2867;DHT22;1441;48.886;8.728;2022-12-08T10:25:24;4.10;93.40
2867;DHT22;1441;48.886;8.728;2022-12-08T10:27:53;4.20;93.40
2867;DHT22;1441;48.886;8.728;2022-12-08T10:30:20;4.20;93.20
2867;DHT22;1441;48.886;8.728;2022-12-08T10:32:51;4.30;93.30
2867;DHT22;1441;48.886;8.728;2022-12-08T10:35:22;4.30;93.10
2867;DHT22;1441;48.886;8.728;2022-12-08T10:37:59;4.30;92.60
2867;DHT22;1441;48.886;8.728;2022-12-08T10:40:33;4.30;92.50
2867;DHT22;1441;48.886;8.728;2022-12-08T10:42:59;4.40;92.90
2867;DHT22;1441;48.886;8.728;2022-12-08T10:48:45;4.40;93.00
2867;DHT22;1441;48.886;8.728;2022-12-08T10:51:00;4.30;92.40
2867;DHT22;1441;48.886;8.728;2022-12-08T10:53:31;4.30;92.80
2867;DHT22;1441;48.886;8.728;2022-12-08T10:58:44;4.40;93.10
2867;DHT22;1441;48.886;8.728;2022-12-08T11:01:18;4.30;93.00
2867;DHT22;1441;48.886;8.728;2022-12-08T11:04:02;4.40;93.10
2867;DHT22;1441;48.886;8.728;2022-12-08T11:06:34;4.50;93.00
2867;DHT22;1441;48.886;8.728;2022-12-08T11:11:48;5.00;89.40
2867;DHT22;1441;48.886;8.728;2022-12-08T11:14:32;5.10;89.20
2867;DHT22;1441;48.886;8.728;2022-12-08T11:17:07;5.10;89.70
2867;DHT22;1441;48.886;8.728;2022-12-08T11:19:41;4.90;91.60
2867;DHT22;1441;48.886;8.728;2022-12-08T11:22:24;5.10;89.70
2867;DHT22;1441;48.886;8.728;2022-12-08T11:27:43;5.20;88.20
2867;DHT22;1441;48.886;8.728;2022-12-08T11:32:45;5.00;88.60
2867;DHT22;1441;48.886;8.728;2022-12-08T11:35:24;5.00;89.00
2867;DHT22;1441;48.886;8.728;2022-12-08T11:37:52;4.90;89.80
2867;DHT22;1441;48.886;8.728;2022-12-08T11:40:23;4.90;89.90
2867;DHT22;1441;48.886;8.728;2022-12-08T11:42:58;4.70;90.60
2867;DHT22;1441;48.886;8.728;2022-12-08T11:45:28;4.50;92.70
2867;DHT22;1441;48.886;8.728;2022-12-08T11:48:02;4.30;94.00
2867;DHT22;1441;48.886;8.728;2022-12-08T11:53:04;4.20;94.10
2867;DHT22;1441;48.886;8.728;2022-12-08T11:55:49;4.10;94.10
2867;DHT22;1441;48.886;8.728;2022-12-08T11:58:42;4.20;93.40
2867;DHT22;1441;48.886;8.728;2022-12-08T12:01:19;4.20;94.10
2867;DHT22;1441;48.886;8.728;2022-12-08T12:12:58;4.10;94.20
2867;DHT22;1441;48.886;8.728;2022-12-08T12:18:38;4.00;93.80
2867;DHT22;1441;48.886;8.728;2022-12-08T12:23:42;4.10;93.80
2867;DHT22;1441;48.886;8.728;2022-12-08T12:26:17;4.10;94.50
2867;DHT22;1441;48.886;8.728;2022-12-08T12:28:50;4.10;93.90
2867;DHT22;1441;48.886;8.728;2022-12-08T12:31:20;4.10;94.20
2867;DHT22;1441;48.886;8.728;2022-12-08T12:33:47;4.10;94.20
2867;DHT22;1441;48.886;8.728;2022-12-08T12:36:14;4.10;94.50
2867;DHT22;1441;48.886;8.728;2022-12-08T12:38:49;4.10;94.10
2867;DHT22;1441;48.886;8.728;2022-12-08T12:52:37;4.10;94.00
2867;DHT22;1441;48.886;8.728;2022-12-08T12:57:23;4.20;93.80
2867;DHT22;1441;48.886;8.728;2022-12-08T13:02:19;4.20;93.50
2867;DHT22;1441;48.886;8.728;2022-12-08T13:05:15;4.20;93.60
2867;DHT22;1441;48.886;8.728;2022-12-08T13:07:51;4.30;94.00
2867;DHT22;1441;48.886;8.728;2022-12-08T13:15:48;4.30;94.10
2867;DHT22;1441;48.886;8.728;2022-12-08T13:18:42;4.20;94.10
2867;DHT22;1441;48.886;8.728;2022-12-08T13:44:49;4.20;94.50
2867;DHT22;1441;48.886;8.728;2022-12-08T13:47:19;4.20;94.40
2867;DHT22;1441;48.886;8.728;2022-12-08T13:49:54;4.10;94.00
2867;DHT22;1441;48.886;8.728;2022-12-08T13:52:43;4.10;94.10
2867;DHT22;1441;48.886;8.728;2022-12-08T13:55:20;4.10;94.90
2867;DHT22;1441;48.886;8.728;2022-12-08T13:57:48;4.10;95.80
2867;DHT22;1441;48.886;8.728;2022-12-08T14:00:19;4.00;95.80
2867;DHT22;1441;48.886;8.728;2022-12-08T14:02:47;4.00;96.10
2867;DHT22;1441;48.886;8.728;2022-12-08T14:05:13;4.10;96.10
2867;DHT22;1441;48.886;8.728;2022-12-08T14:07:40;4.00;96.10
2867;DHT22;1441;48.886;8.728;2022-12-08T14:10:09;4.00;95.80
2867;DHT22;1441;48.886;8.728;2022-12-08T14:12:44;4.00;95.80
2867;DHT22;1441;48.886;8.728;2022-12-08T14:15:13;4.00;96.50
2867;DHT22;1441;48.886;8.728;2022-12-08T14:17:40;4.00;96.30
2867;DHT22;1441;48.886;8.728;2022-12-08T14:22:39;3.90;96.10
2867;DHT22;1441;48.886;8.728;2022-12-08T14:25:08;4.00;96.20
2867;DHT22;1441;48.886;8.728;2022-12-08T14:27:36;3.90;96.20
2867;DHT22;1441;48.886;8.728;2022-12-08T14:32:54;3.90;96.10
2867;DHT22;1441;48.886;8.728;2022-12-08T14:35:37;3.80;95.30
2867;DHT22;1441;48.886;8.728;2022-12-08T14:38:05;3.90;95.70
2867;DHT22;1441;48.886;8.728;2022-12-08T14:40:41;3.90;96.00
2867;DHT22;1441;48.886;8.728;2022-12-08T14:48:25;3.70;96.00
2867;DHT22;1441;48.886;8.728;2022-12-08T14:53:24;3.80;96.50
2867;DHT22;1441;48.886;8.728;2022-12-08T14:55:50;3.90;96.60
2867;DHT22;1441;48.886;8.728;2022-12-08T14:58:28;3.90;96.50
2867;DHT22;1441;48.886;8.728;2022-12-08T15:00:58;3.90;97.40
2867;DHT22;1441;48.886;8.728;2022-12-08T15:03:26;3.70;98.20
2867;DHT22;1441;48.886;8.728;2022-12-08T15:05:57;3.70;97.70
2867;DHT22;1441;48.886;8.728;2022-12-08T15:08:24;3.60;97.90
2867;DHT22;1441;48.886;8.728;2022-12-08T15:11:13;3.60;97.70
2867;DHT22;1441;48.886;8.728;2022-12-08T15:13:44;3.60;97.40
2867;DHT22;1441;48.886;8.728;2022-12-08T15:19:00;3.60;97.80
2867;DHT22;1441;48.886;8.728;2022-12-08T15:21:33;3.60;97.30
2867;DHT22;1441;48.886;8.728;2022-12-08T15:24:01;3.60;97.80
2867;DHT22;1441;48.886;8.728;2022-12-08T15:26:26;3.60;98.10
2867;DHT22;1441;48.886;8.728;2022-12-08T15:28:53;3.50;98.00
2867;DHT22;1441;48.886;8.728;2022-12-08T15:31:19;3.50;97.60
2867;DHT22;1441;48.886;8.728;2022-12-08T15:33:45;3.50;97.30
2867;DHT22;1441;48.886;8.728;2022-12-08T15:36:11;3.50;97.40
2867;DHT22;1441;48.886;8.728;2022-12-08T15:38:36;3.50;97.40
2867;DHT22;1441;48.886;8.728;2022-12-08T15:41:02;3.40;97.50
2867;DHT22;1441;48.886;8.728;2022-12-08T15:43:30;3.40;97.70
2867;DHT22;1441;48.886;8.728;2022-12-08T15:45:56;3.50;97.80
2867;DHT22;1441;48.886;8.728;2022-12-08T15:48:24;3.50;97.90
2867;DHT22;1441;48.886;8.728;2022-12-08T15:50:51;3.50;97.50
2867;DHT22;1441;48.886;8.728;2022-12-08T15:53:17;3.50;97.70
2867;DHT22;1441;48.886;8.728;2022-12-08T15:55:43;3.40;97.80
2867;DHT22;1441;48.886;8.728;2022-12-08T15:58:21;3.40;97.70
2867;DHT22;1441;48.886;8.728;2022-12-08T16:00:48;3.40;97.40
2867;DHT22;1441;48.886;8.728;2022-12-08T16:03:25;3.40;97.60
2867;DHT22;1441;48.886;8.728;2022-12-08T16:05:55;3.40;97.60
2867;DHT22;1441;48.886;8.728;2022-12-08T16:08:22;3.40;97.60
2867;DHT22;1441;48.886;8.728;2022-12-08T16:10:47;3.40;97.90
2867;DHT22;1441;48.886;8.728;2022-12-08T16:13:15;3.40;98.20
2867;DHT22;1441;48.886;8.728;2022-12-08T16:16:00;3.40;98.00
2867;DHT22;1441;48.886;8.728;2022-12-08T16:18:32;3.30;98.60
2867;DHT22;1441;48.886;8.728;2022-12-08T16:20:59;3.30;98.20
2867;DHT22;1441;48.886;8.728;2022-12-08T16:23:24;3.30;98.00
2867;DHT22;1441;48.886;8.728;2022-12-08T16:25:50;3.30;98.40
2867;DHT22;1441;48.886;8.728;2022-12-08T16:28:16;3.30;98.60
2867;DHT22;1441;48.886;8.728;2022-12-08T16:30:41;3.30;99.00
2867;DHT22;1441;48.886;8.728;2022-12-08T16:33:08;3.30;99.30
2867;DHT22;1441;48.886;8.728;2022-12-08T16:35:34;3.20;99.20
2867;DHT22;1441;48.886;8.728;2022-12-08T16:38:00;3.30;99.40
2867;DHT22;1441;48.886;8.728;2022-12-08T16:40:25;3.30;99.50
2867;DHT22;1441;48.886;8.728;2022-12-08T16:42:51;3.40;99.30
2867;DHT22;1441;48.886;8.728;2022-12-08T16:47:45;3.40;99.40
2867;DHT22;1441;48.886;8.728;2022-12-08T16:50:17;3.50;98.60
2867;DHT22;1441;48.886;8.728;2022-12-08T16:52:43;3.50;98.70
2867;DHT22;1441;48.886;8.728;2022-12-08T16:55:12;3.50;98.40
2867;DHT22;1441;48.886;8.728;2022-12-08T16:57:38;3.40;99.20
2867;DHT22;1441;48.886;8.728;2022-12-08T17:00:06;3.50;99.30
2867;DHT22;1441;48.886;8.728;2022-12-08T17:02:32;3.40;98.60
2867;DHT22;1441;48.886;8.728;2022-12-08T17:04:57;3.60;98.20
2867;DHT22;1441;48.886;8.728;2022-12-08T17:07:23;3.70;97.20
2867;DHT22;1441;48.886;8.728;2022-12-08T17:09:49;3.80;96.70
2867;DHT22;1441;48.886;8.728;2022-12-08T17:12:15;3.80;96.40
2867;DHT22;1441;48.886;8.728;2022-12-08T17:14:40;3.90;95.70
2867;DHT22;1441;48.886;8.728;2022-12-08T17:17:06;3.80;96.00
2867;DHT22;1441;48.886;8.728;2022-12-08T17:19:32;3.80;96.40
2867;DHT22;1441;48.886;8.728;2022-12-08T17:21:58;3.70;96.00
2867;DHT22;1441;48.886;8.728;2022-12-08T17:24:23;3.60;96.60
2867;DHT22;1441;48.886;8.728;2022-12-08T17:26:56;3.60;96.30
2867;DHT22;1441;48.886;8.728;2022-12-08T17:29:22;3.50;96.30
2867;DHT22;1441;48.886;8.728;2022-12-08T17:31:49;3.30;98.10
2867;DHT22;1441;48.886;8.728;2022-12-08T17:34:15;3.20;98.80
2867;DHT22;1441;48.886;8.728;2022-12-08T17:36:40;3.30;98.20
2867;DHT22;1441;48.886;8.728;2022-12-08T17:39:06;3.60;97.00
2867;DHT22;1441;48.886;8.728;2022-12-08T17:41:33;3.80;96.30
2867;DHT22;1441;48.886;8.728;2022-12-08T17:43:59;3.90;96.00
2867;DHT22;1441;48.886;8.728;2022-12-08T17:46:25;3.90;96.10
2867;DHT22;1441;48.886;8.728;2022-12-08T17:48:51;3.90;96.30
2867;DHT22;1441;48.886;8.728;2022-12-08T17:51:17;3.90;96.60
2867;DHT22;1441;48.886;8.728;2022-12-08T17:53:42;3.80;96.80
2867;DHT22;1441;48.886;8.728;2022-12-08T17:56:18;3.70;97.20
2867;DHT22;1441;48.886;8.728;2022-12-08T17:58:44;3.80;96.20
2867;DHT22;1441;48.886;8.728;2022-12-08T18:01:10;3.60;96.60
2867;DHT22;1441;48.886;8.728;2022-12-08T18:03:36;3.70;96.40
2867;DHT22;1441;48.886;8.728;2022-12-08T18:06:09;3.40;97.50
2867;DHT22;1441;48.886;8.728;2022-12-08T18:08:36;3.50;97.60
2867;DHT22;1441;48.886;8.728;2022-12-08T18:11:03;3.60;97.60
2867;DHT22;1441;48.886;8.728;2022-12-08T18:13:28;3.60;97.30
2867;DHT22;1441;48.886;8.728;2022-12-08T18:15:54;3.50;97.60
2867;DHT22;1441;48.886;8.728;2022-12-08T18:18:20;3.50;98.10
2867;DHT22;1441;48.886;8.728;2022-12-08T18:20:47;3.50;97.60
2867;DHT22;1441;48.886;8.728;2022-12-08T18:23:13;3.50;97.60
2867;DHT22;1441;48.886;8.728;2022-12-08T18:25:39;3.60;96.60
2867;DHT22;1441;48.886;8.728;2022-12-08T18:28:04;3.50;96.50